sensor_id;sensor_type;location;lat;lon;timestamp;P1;durP1;ratioP1;P2;durP2;ratioP2
13584;SDS011;6863;48.402;9.994;2023-05-21T00:01:45;15.60;;;14.00;;
13584;SDS011;6863;48.402;9.994;2023-05-21T00:04:12;15.97;;;13.93;;
13584;SDS011;6863;48.402;9.994;2023-05-21T00:06:39;17.17;;;13.57;;
13584;SDS011;6863;48.402;9.994;2023-05-21T00:09:05;15.43;;;13.93;;
13584;SDS011;6863;48.402;9.994;2023-05-21T00:11:31;14.57;;;13.17;;
13584;SDS011;6863;48.402;9.994;2023-05-21T00:13:57;15.77;;;14.17;;
13584;SDS011;6863;48.402;9.994;2023-05-21T00:16:23;16.67;;;14.67;;
13584;SDS011;6863;48.402;9.994;2023-05-21T00:18:49;15.37;;;13.73;;
13584;SDS011;6863;48.402;9.994;2023-05-21T00:21:15;15.60;;;14.00;;
13584;SDS011;6863;48.402;9.994;2023-05-21T00:23:41;16.00;;;14.43;;
13584;SDS011;6863;48.402;9.994;2023-05-21T00:26:08;14.97;;;13.37;;
13584;SDS011;6863;48.402;9.994;2023-05-21T00:28:33;15.90;;;14.20;;
13584;SDS011;6863;48.402;9.994;2023-05-21T00:30:59;15.80;;;14.30;;
13584;SDS011;6863;48.402;9.994;2023-05-21T00:33:25;15.57;;;13.97;;
13584;SDS011;6863;48.402;9.994;2023-05-21T00:35:53;15.70;;;14.20;;
13584;SDS011;6863;48.402;9.994;2023-05-21T00:38:21;16.20;;;14.60;;
13584;SDS011;6863;48.402;9.994;2023-05-21T00:40:47;16.10;;;14.50;;
13584;SDS011;6863;48.402;9.994;2023-05-21T00:43:13;15.87;;;14.37;;
13584;SDS011;6863;48.402;9.994;2023-05-21T00:45:42;15.70;;;14.10;;
13584;SDS011;6863;48.402;9.994;2023-05-21T00:48:12;15.57;;;13.97;;
13584;SDS011;6863;48.402;9.994;2023-05-21T00:50:39;16.20;;;14.60;;
13584;SDS011;6863;48.402;9.994;2023-05-21T00:53:05;16.90;;;14.33;;
13584;SDS011;6863;48.402;9.994;2023-05-21T00:55:36;16.53;;;14.37;;
13584;SDS011;6863;48.402;9.994;2023-05-21T00:58:02;15.83;;;14.23;;
13584;SDS011;6863;48.402;9.994;2023-05-21T01:00:31;16.10;;;14.40;;
13584;SDS011;6863;48.402;9.994;2023-05-21T01:02:57;16.60;;;14.83;;
13584;SDS011;6863;48.402;9.994;2023-05-21T01:05:23;16.33;;;14.37;;
13584;SDS011;6863;48.402;9.994;2023-05-21T01:07:49;16.70;;;15.00;;
13584;SDS011;6863;48.402;9.994;2023-05-21T01:10:14;16.17;;;14.43;;
13584;SDS011;6863;48.402;9.994;2023-05-21T01:12:41;15.37;;;13.77;;
13584;SDS011;6863;48.402;9.994;2023-05-21T01:15:08;16.40;;;14.73;;
13584;SDS011;6863;48.402;9.994;2023-05-21T01:17:34;15.97;;;14.33;;
13584;SDS011;6863;48.402;9.994;2023-05-21T01:20:01;17.57;;;15.83;;
13584;SDS011;6863;48.402;9.994;2023-05-21T01:22:33;17.23;;;15.13;;
13584;SDS011;6863;48.402;9.994;2023-05-21T01:24:59;17.37;;;15.57;;
13584;SDS011;6863;48.402;9.994;2023-05-21T01:27:26;16.43;;;14.83;;
13584;SDS011;6863;48.402;9.994;2023-05-21T01:29:52;16.10;;;14.47;;
13584;SDS011;6863;48.402;9.994;2023-05-21T01:32:22;16.13;;;14.53;;
13584;SDS011;6863;48.402;9.994;2023-05-21T01:35:03;16.43;;;14.83;;
13584;SDS011;6863;48.402;9.994;2023-05-21T01:43:13;17.27;;;15.47;;
13584;SDS011;6863;48.402;9.994;2023-05-21T01:45:41;16.97;;;15.17;;
13584;SDS011;6863;48.402;9.994;2023-05-21T01:48:08;16.60;;;15.00;;
13584;SDS011;6863;48.402;9.994;2023-05-21T01:50:34;16.23;;;14.60;;
13584;SDS011;6863;48.402;9.994;2023-05-21T01:53:02;16.40;;;14.70;;
13584;SDS011;6863;48.402;9.994;2023-05-21T01:55:30;17.90;;;15.57;;
13584;SDS011;6863;48.402;9.994;2023-05-21T01:57:56;16.90;;;15.10;;
13584;SDS011;6863;48.402;9.994;2023-05-21T02:00:24;17.33;;;15.53;;
13584;SDS011;6863;48.402;9.994;2023-05-21T02:02:54;19.53;;;17.43;;
13584;SDS011;6863;48.402;9.994;2023-05-21T02:05:20;17.03;;;14.93;;
13584;SDS011;6863;48.402;9.994;2023-05-21T02:07:46;18.90;;;16.90;;
13584;SDS011;6863;48.402;9.994;2023-05-21T02:10:12;17.40;;;15.60;;
13584;SDS011;6863;48.402;9.994;2023-05-21T02:12:37;17.97;;;15.97;;
13584;SDS011;6863;48.402;9.994;2023-05-21T02:15:03;17.10;;;15.30;;
13584;SDS011;6863;48.402;9.994;2023-05-21T02:17:29;15.70;;;14.20;;
13584;SDS011;6863;48.402;9.994;2023-05-21T02:19:58;18.13;;;15.70;;
13584;SDS011;6863;48.402;9.994;2023-05-21T02:22:35;16.93;;;15.23;;
13584;SDS011;6863;48.402;9.994;2023-05-21T02:25:03;18.30;;;16.03;;
13584;SDS011;6863;48.402;9.994;2023-05-21T02:27:29;17.33;;;15.57;;
13584;SDS011;6863;48.402;9.994;2023-05-21T02:29:56;18.17;;;16.40;;
13584;SDS011;6863;48.402;9.994;2023-05-21T02:32:21;17.30;;;15.40;;
13584;SDS011;6863;48.402;9.994;2023-05-21T02:34:47;17.30;;;15.73;;
13584;SDS011;6863;48.402;9.994;2023-05-21T02:37:14;17.43;;;15.57;;
13584;SDS011;6863;48.402;9.994;2023-05-21T02:39:39;18.43;;;16.50;;
13584;SDS011;6863;48.402;9.994;2023-05-21T02:42:05;17.77;;;15.73;;
13584;SDS011;6863;48.402;9.994;2023-05-21T02:44:30;18.10;;;16.30;;
13584;SDS011;6863;48.402;9.994;2023-05-21T02:46:56;18.07;;;16.27;;
13584;SDS011;6863;48.402;9.994;2023-05-21T02:49:21;17.93;;;16.13;;
13584;SDS011;6863;48.402;9.994;2023-05-21T02:51:47;17.10;;;15.20;;
13584;SDS011;6863;48.402;9.994;2023-05-21T02:54:13;17.97;;;16.17;;
13584;SDS011;6863;48.402;9.994;2023-05-21T02:56:39;17.10;;;15.30;;
13584;SDS011;6863;48.402;9.994;2023-05-21T02:59:05;17.73;;;16.00;;
13584;SDS011;6863;48.402;9.994;2023-05-21T03:01:31;18.40;;;16.60;;
13584;SDS011;6863;48.402;9.994;2023-05-21T03:03:56;18.60;;;16.63;;
13584;SDS011;6863;48.402;9.994;2023-05-21T03:06:22;18.03;;;16.33;;
13584;SDS011;6863;48.402;9.994;2023-05-21T03:08:47;18.63;;;16.63;;
13584;SDS011;6863;48.402;9.994;2023-05-21T03:11:13;17.77;;;15.97;;
13584;SDS011;6863;48.402;9.994;2023-05-21T03:13:38;19.27;;;17.27;;
13584;SDS011;6863;48.402;9.994;2023-05-21T03:16:04;18.90;;;16.80;;
13584;SDS011;6863;48.402;9.994;2023-05-21T03:18:30;18.87;;;16.93;;
13584;SDS011;6863;48.402;9.994;2023-05-21T03:20:55;18.33;;;16.43;;
13584;SDS011;6863;48.402;9.994;2023-05-21T03:23:22;19.50;;;17.27;;
13584;SDS011;6863;48.402;9.994;2023-05-21T03:25:48;18.70;;;16.73;;
13584;SDS011;6863;48.402;9.994;2023-05-21T03:28:14;20.17;;;18.00;;
13584;SDS011;6863;48.402;9.994;2023-05-21T03:30:41;18.43;;;16.57;;
13584;SDS011;6863;48.402;9.994;2023-05-21T03:33:10;19.43;;;17.33;;
13584;SDS011;6863;48.402;9.994;2023-05-21T03:35:37;19.47;;;17.47;;
13584;SDS011;6863;48.402;9.994;2023-05-21T03:38:03;20.27;;;18.07;;
13584;SDS011;6863;48.402;9.994;2023-05-21T03:40:32;19.43;;;17.43;;
13584;SDS011;6863;48.402;9.994;2023-05-21T03:42:57;19.33;;;17.33;;
13584;SDS011;6863;48.402;9.994;2023-05-21T03:45:23;19.53;;;17.50;;
13584;SDS011;6863;48.402;9.994;2023-05-21T03:47:48;19.77;;;17.67;;
13584;SDS011;6863;48.402;9.994;2023-05-21T03:50:14;19.13;;;17.20;;
13584;SDS011;6863;48.402;9.994;2023-05-21T03:52:40;19.73;;;17.67;;
13584;SDS011;6863;48.402;9.994;2023-05-21T03:55:06;20.40;;;17.63;;
13584;SDS011;6863;48.402;9.994;2023-05-21T03:57:32;23.07;;;18.40;;
13584;SDS011;6863;48.402;9.994;2023-05-21T03:59:57;19.10;;;17.17;;
13584;SDS011;6863;48.402;9.994;2023-05-21T04:02:26;19.43;;;17.33;;
13584;SDS011;6863;48.402;9.994;2023-05-21T04:04:52;25.17;;;19.30;;
13584;SDS011;6863;48.402;9.994;2023-05-21T04:07:18;19.77;;;17.67;;
13584;SDS011;6863;48.402;9.994;2023-05-21T04:09:43;18.87;;;16.87;;
13584;SDS011;6863;48.402;9.994;2023-05-21T04:12:10;19.50;;;17.37;;
13584;SDS011;6863;48.402;9.994;2023-05-21T04:14:35;19.90;;;17.77;;
13584;SDS011;6863;48.402;9.994;2023-05-21T04:17:01;19.10;;;17.03;;
13584;SDS011;6863;48.402;9.994;2023-05-21T04:19:29;19.93;;;17.90;;
13584;SDS011;6863;48.402;9.994;2023-05-21T04:21:55;18.93;;;16.93;;
13584;SDS011;6863;48.402;9.994;2023-05-21T04:24:22;19.37;;;16.97;;
13584;SDS011;6863;48.402;9.994;2023-05-21T04:26:47;19.40;;;16.90;;
13584;SDS011;6863;48.402;9.994;2023-05-21T04:29:14;23.57;;;17.10;;
13584;SDS011;6863;48.402;9.994;2023-05-21T04:31:42;18.53;;;16.63;;
13584;SDS011;6863;48.402;9.994;2023-05-21T04:34:11;18.07;;;16.27;;
13584;SDS011;6863;48.402;9.994;2023-05-21T04:36:36;17.43;;;15.67;;
13584;SDS011;6863;48.402;9.994;2023-05-21T04:39:02;18.73;;;16.73;;
13584;SDS011;6863;48.402;9.994;2023-05-21T04:41:30;17.40;;;15.63;;
13584;SDS011;6863;48.402;9.994;2023-05-21T04:43:55;18.43;;;16.53;;
13584;SDS011;6863;48.402;9.994;2023-05-21T04:46:21;17.97;;;16.23;;
13584;SDS011;6863;48.402;9.994;2023-05-21T04:48:52;17.93;;;16.10;;
13584;SDS011;6863;48.402;9.994;2023-05-21T04:51:22;16.30;;;14.63;;
13584;SDS011;6863;48.402;9.994;2023-05-21T04:53:50;17.83;;;15.13;;
13584;SDS011;6863;48.402;9.994;2023-05-21T04:56:17;17.93;;;15.90;;
13584;SDS011;6863;48.402;9.994;2023-05-21T04:58:44;17.57;;;15.77;;
13584;SDS011;6863;48.402;9.994;2023-05-21T05:01:10;17.17;;;15.47;;
13584;SDS011;6863;48.402;9.994;2023-05-21T05:03:36;16.33;;;14.70;;
13584;SDS011;6863;48.402;9.994;2023-05-21T05:06:02;17.23;;;15.43;;
13584;SDS011;6863;48.402;9.994;2023-05-21T05:08:28;16.73;;;13.90;;
13584;SDS011;6863;48.402;9.994;2023-05-21T05:10:54;15.43;;;13.93;;
13584;SDS011;6863;48.402;9.994;2023-05-21T05:13:20;16.03;;;14.23;;
13584;SDS011;6863;48.402;9.994;2023-05-21T05:15:45;15.00;;;13.57;;
13584;SDS011;6863;48.402;9.994;2023-05-21T05:18:11;16.47;;;14.87;;
13584;SDS011;6863;48.402;9.994;2023-05-21T05:20:37;16.60;;;14.87;;
13584;SDS011;6863;48.402;9.994;2023-05-21T05:23:02;14.67;;;13.17;;
13584;SDS011;6863;48.402;9.994;2023-05-21T05:25:28;15.60;;;14.10;;
13584;SDS011;6863;48.402;9.994;2023-05-21T05:27:54;15.80;;;13.60;;
13584;SDS011;6863;48.402;9.994;2023-05-21T05:30:19;15.07;;;13.60;;
13584;SDS011;6863;48.402;9.994;2023-05-21T05:32:45;13.87;;;12.57;;
13584;SDS011;6863;48.402;9.994;2023-05-21T05:35:11;14.57;;;13.17;;
13584;SDS011;6863;48.402;9.994;2023-05-21T05:37:37;13.70;;;12.33;;
13584;SDS011;6863;48.402;9.994;2023-05-21T05:40:03;13.90;;;12.57;;
13584;SDS011;6863;48.402;9.994;2023-05-21T05:42:29;13.80;;;12.43;;
13584;SDS011;6863;48.402;9.994;2023-05-21T05:44:55;13.63;;;12.40;;
13584;SDS011;6863;48.402;9.994;2023-05-21T05:47:21;13.73;;;12.43;;
13584;SDS011;6863;48.402;9.994;2023-05-21T05:49:46;13.43;;;12.13;;
13584;SDS011;6863;48.402;9.994;2023-05-21T05:52:12;13.43;;;12.02;;
13584;SDS011;6863;48.402;9.994;2023-05-21T05:54:38;12.77;;;11.57;;
13584;SDS011;6863;48.402;9.994;2023-05-21T05:57:03;13.05;;;11.73;;
13584;SDS011;6863;48.402;9.994;2023-05-21T05:59:29;12.50;;;11.38;;
13584;SDS011;6863;48.402;9.994;2023-05-21T06:01:57;12.77;;;11.55;;
13584;SDS011;6863;48.402;9.994;2023-05-21T06:04:23;12.95;;;11.75;;
13584;SDS011;6863;48.402;9.994;2023-05-21T06:06:49;12.55;;;11.30;;
13584;SDS011;6863;48.402;9.994;2023-05-21T06:09:14;12.73;;;11.65;;
13584;SDS011;6863;48.402;9.994;2023-05-21T06:11:40;12.23;;;11.02;;
13584;SDS011;6863;48.402;9.994;2023-05-21T06:14:06;13.35;;;12.07;;
13584;SDS011;6863;48.402;9.994;2023-05-21T06:16:31;11.88;;;10.88;;
13584;SDS011;6863;48.402;9.994;2023-05-21T06:18:57;12.05;;;10.75;;
13584;SDS011;6863;48.402;9.994;2023-05-21T06:21:23;11.40;;;10.43;;
13584;SDS011;6863;48.402;9.994;2023-05-21T06:23:49;12.20;;;11.00;;
13584;SDS011;6863;48.402;9.994;2023-05-21T06:26:14;12.07;;;10.98;;
13584;SDS011;6863;48.402;9.994;2023-05-21T06:28:42;11.20;;;10.27;;
13584;SDS011;6863;48.402;9.994;2023-05-21T06:31:08;12.18;;;10.70;;
13584;SDS011;6863;48.402;9.994;2023-05-21T06:33:34;11.52;;;10.43;;
13584;SDS011;6863;48.402;9.994;2023-05-21T06:35:59;12.88;;;11.68;;
13584;SDS011;6863;48.402;9.994;2023-05-21T06:38:25;11.70;;;10.60;;
13584;SDS011;6863;48.402;9.994;2023-05-21T06:40:50;11.98;;;10.95;;
13584;SDS011;6863;48.402;9.994;2023-05-21T06:43:16;11.77;;;10.68;;
13584;SDS011;6863;48.402;9.994;2023-05-21T06:45:42;11.85;;;10.65;;
13584;SDS011;6863;48.402;9.994;2023-05-21T06:48:07;12.20;;;10.95;;
13584;SDS011;6863;48.402;9.994;2023-05-21T06:50:33;13.02;;;10.38;;
13584;SDS011;6863;48.402;9.994;2023-05-21T06:52:59;12.45;;;11.27;;
13584;SDS011;6863;48.402;9.994;2023-05-21T06:55:25;13.10;;;11.93;;
13584;SDS011;6863;48.402;9.994;2023-05-21T06:57:50;12.57;;;11.25;;
13584;SDS011;6863;48.402;9.994;2023-05-21T07:00:16;11.50;;;10.35;;
13584;SDS011;6863;48.402;9.994;2023-05-21T07:02:42;11.35;;;10.35;;
13584;SDS011;6863;48.402;9.994;2023-05-21T07:05:08;10.90;;;9.88;;
13584;SDS011;6863;48.402;9.994;2023-05-21T07:07:33;10.60;;;9.70;;
13584;SDS011;6863;48.402;9.994;2023-05-21T07:09:59;11.23;;;10.23;;
13584;SDS011;6863;48.402;9.994;2023-05-21T07:12:25;11.20;;;10.18;;
13584;SDS011;6863;48.402;9.994;2023-05-21T07:14:51;12.10;;;10.90;;
13584;SDS011;6863;48.402;9.994;2023-05-21T07:17:16;11.95;;;10.80;;
13584;SDS011;6863;48.402;9.994;2023-05-21T07:19:42;10.98;;;10.07;;
13584;SDS011;6863;48.402;9.994;2023-05-21T07:22:07;11.25;;;10.27;;
13584;SDS011;6863;48.402;9.994;2023-05-21T07:24:33;11.18;;;10.18;;
13584;SDS011;6863;48.402;9.994;2023-05-21T07:26:58;11.27;;;10.27;;
13584;SDS011;6863;48.402;9.994;2023-05-21T07:29:24;11.48;;;10.40;;
13584;SDS011;6863;48.402;9.994;2023-05-21T07:31:50;10.75;;;9.75;;
13584;SDS011;6863;48.402;9.994;2023-05-21T07:34:16;11.57;;;10.40;;
13584;SDS011;6863;48.402;9.994;2023-05-21T07:36:41;11.00;;;9.90;;
13584;SDS011;6863;48.402;9.994;2023-05-21T07:39:07;10.68;;;9.77;;
13584;SDS011;6863;48.402;9.994;2023-05-21T07:41:33;11.40;;;10.23;;
13584;SDS011;6863;48.402;9.994;2023-05-21T07:43:58;12.43;;;10.82;;
13584;SDS011;6863;48.402;9.994;2023-05-21T07:46:25;11.20;;;10.20;;
13584;SDS011;6863;48.402;9.994;2023-05-21T07:48:51;12.00;;;10.80;;
13584;SDS011;6863;48.402;9.994;2023-05-21T07:51:16;11.13;;;10.02;;
13584;SDS011;6863;48.402;9.994;2023-05-21T07:53:42;11.65;;;10.55;;
13584;SDS011;6863;48.402;9.994;2023-05-21T07:56:08;11.52;;;10.43;;
13584;SDS011;6863;48.402;9.994;2023-05-21T07:58:34;10.77;;;9.88;;
13584;SDS011;6863;48.402;9.994;2023-05-21T08:01:00;10.13;;;9.10;;
13584;SDS011;6863;48.402;9.994;2023-05-21T08:03:26;11.05;;;9.93;;
13584;SDS011;6863;48.402;9.994;2023-05-21T08:05:55;11.18;;;10.07;;
13584;SDS011;6863;48.402;9.994;2023-05-21T08:08:20;11.40;;;10.30;;
13584;SDS011;6863;48.402;9.994;2023-05-21T08:10:47;10.65;;;9.70;;
13584;SDS011;6863;48.402;9.994;2023-05-21T08:13:16;10.65;;;9.65;;
13584;SDS011;6863;48.402;9.994;2023-05-21T08:15:42;10.70;;;9.68;;
13584;SDS011;6863;48.402;9.994;2023-05-21T08:18:11;10.50;;;9.60;;
13584;SDS011;6863;48.402;9.994;2023-05-21T08:20:37;11.52;;;10.23;;
13584;SDS011;6863;48.402;9.994;2023-05-21T08:23:04;11.50;;;10.50;;
13584;SDS011;6863;48.402;9.994;2023-05-21T08:25:30;10.90;;;9.95;;
13584;SDS011;6863;48.402;9.994;2023-05-21T08:27:55;12.48;;;10.20;;
13584;SDS011;6863;48.402;9.994;2023-05-21T08:30:21;11.20;;;10.00;;
13584;SDS011;6863;48.402;9.994;2023-05-21T08:32:47;10.88;;;9.88;;
13584;SDS011;6863;48.402;9.994;2023-05-21T08:35:13;11.00;;;9.90;;
13584;SDS011;6863;48.402;9.994;2023-05-21T08:37:38;11.15;;;10.15;;
13584;SDS011;6863;48.402;9.994;2023-05-21T08:40:04;11.57;;;10.57;;
13584;SDS011;6863;48.402;9.994;2023-05-21T08:42:46;11.10;;;10.10;;
13584;SDS011;6863;48.402;9.994;2023-05-21T08:45:13;11.32;;;10.43;;
13584;SDS011;6863;48.402;9.994;2023-05-21T08:47:44;10.88;;;9.93;;
13584;SDS011;6863;48.402;9.994;2023-05-21T08:50:14;11.18;;;10.07;;
13584;SDS011;6863;48.402;9.994;2023-05-21T08:52:43;11.70;;;10.60;;
13584;SDS011;6863;48.402;9.994;2023-05-21T08:55:08;10.70;;;9.60;;
13584;SDS011;6863;48.402;9.994;2023-05-21T08:57:35;10.73;;;9.90;;
13584;SDS011;6863;48.402;9.994;2023-05-21T09:00:01;10.68;;;9.63;;
13584;SDS011;6863;48.402;9.994;2023-05-21T09:02:28;11.15;;;10.13;;
13584;SDS011;6863;48.402;9.994;2023-05-21T09:04:58;10.98;;;9.98;;
13584;SDS011;6863;48.402;9.994;2023-05-21T09:07:27;10.48;;;9.50;;
13584;SDS011;6863;48.402;9.994;2023-05-21T09:09:55;11.13;;;10.23;;
13584;SDS011;6863;48.402;9.994;2023-05-21T09:12:30;10.35;;;9.45;;
13584;SDS011;6863;48.402;9.994;2023-05-21T09:14:56;11.00;;;10.10;;
13584;SDS011;6863;48.402;9.994;2023-05-21T09:17:25;11.10;;;9.98;;
13584;SDS011;6863;48.402;9.994;2023-05-21T09:27:46;11.70;;;10.70;;
13584;SDS011;6863;48.402;9.994;2023-05-21T09:30:16;11.45;;;10.43;;
13584;SDS011;6863;48.402;9.994;2023-05-21T09:32:43;11.75;;;10.55;;
13584;SDS011;6863;48.402;9.994;2023-05-21T09:35:11;10.23;;;9.43;;
13584;SDS011;6863;48.402;9.994;2023-05-21T09:37:43;10.25;;;9.35;;
13584;SDS011;6863;48.402;9.994;2023-05-21T09:40:15;11.07;;;9.98;;
13584;SDS011;6863;48.402;9.994;2023-05-21T09:42:45;10.77;;;9.68;;
13584;SDS011;6863;48.402;9.994;2023-05-21T09:45:18;9.85;;;8.90;;
13584;SDS011;6863;48.402;9.994;2023-05-21T09:47:48;10.90;;;9.80;;
13584;SDS011;6863;48.402;9.994;2023-05-21T09:50:18;10.38;;;9.38;;
13584;SDS011;6863;48.402;9.994;2023-05-21T09:52:45;11.35;;;10.13;;
13584;SDS011;6863;48.402;9.994;2023-05-21T09:55:14;11.02;;;10.13;;
13584;SDS011;6863;48.402;9.994;2023-05-21T09:57:47;11.40;;;10.40;;
13584;SDS011;6863;48.402;9.994;2023-05-21T10:02:46;10.55;;;9.55;;
13584;SDS011;6863;48.402;9.994;2023-05-21T10:05:13;11.52;;;10.10;;
13584;SDS011;6863;48.402;9.994;2023-05-21T10:07:41;12.43;;;10.85;;
13584;SDS011;6863;48.402;9.994;2023-05-21T10:10:12;14.68;;;10.85;;
13584;SDS011;6863;48.402;9.994;2023-05-21T10:12:43;18.05;;;11.32;;
13584;SDS011;6863;48.402;9.994;2023-05-21T10:15:15;11.05;;;10.15;;
13584;SDS011;6863;48.402;9.994;2023-05-21T10:18:03;11.45;;;10.45;;
13584;SDS011;6863;48.402;9.994;2023-05-21T10:21:26;11.65;;;10.65;;
13584;SDS011;6863;48.402;9.994;2023-05-21T10:24:12;11.50;;;10.50;;
13584;SDS011;6863;48.402;9.994;2023-05-21T10:26:49;11.70;;;10.70;;
13584;SDS011;6863;48.402;9.994;2023-05-21T10:29:15;12.68;;;11.52;;
13584;SDS011;6863;48.402;9.994;2023-05-21T10:31:43;12.23;;;10.98;;
13584;SDS011;6863;48.402;9.994;2023-05-21T10:34:13;11.98;;;10.85;;
13584;SDS011;6863;48.402;9.994;2023-05-21T10:36:39;11.18;;;10.23;;
13584;SDS011;6863;48.402;9.994;2023-05-21T10:39:05;12.18;;;11.00;;
13584;SDS011;6863;48.402;9.994;2023-05-21T10:41:34;12.07;;;10.85;;
13584;SDS011;6863;48.402;9.994;2023-05-21T10:44:16;12.50;;;11.50;;
13584;SDS011;6863;48.402;9.994;2023-05-21T10:50:07;11.05;;;10.20;;
13584;SDS011;6863;48.402;9.994;2023-05-21T10:55:28;10.15;;;9.35;;
13584;SDS011;6863;48.402;9.994;2023-05-21T10:58:16;10.65;;;9.73;;
13584;SDS011;6863;48.402;9.994;2023-05-21T11:00:59;11.27;;;9.52;;
13584;SDS011;6863;48.402;9.994;2023-05-21T11:03:26;10.05;;;9.20;;
13584;SDS011;6863;48.402;9.994;2023-05-21T11:05:53;9.90;;;9.00;;
13584;SDS011;6863;48.402;9.994;2023-05-21T11:10:51;9.82;;;8.85;;
13584;SDS011;6863;48.402;9.994;2023-05-21T11:13:17;10.20;;;9.23;;
13584;SDS011;6863;48.402;9.994;2023-05-21T11:16:01;9.07;;;8.40;;
13584;SDS011;6863;48.402;9.994;2023-05-21T11:21:05;10.35;;;9.55;;
13584;SDS011;6863;48.402;9.994;2023-05-21T11:26:28;9.02;;;8.32;;
13584;SDS011;6863;48.402;9.994;2023-05-21T11:29:19;9.52;;;8.73;;
13584;SDS011;6863;48.402;9.994;2023-05-21T11:31:45;7.95;;;7.35;;
13584;SDS011;6863;48.402;9.994;2023-05-21T11:34:21;9.50;;;8.65;;
13584;SDS011;6863;48.402;9.994;2023-05-21T11:39:54;8.95;;;8.10;;
13584;SDS011;6863;48.402;9.994;2023-05-21T11:42:47;8.80;;;8.02;;
13584;SDS011;6863;48.402;9.994;2023-05-21T11:45:22;8.88;;;8.02;;
13584;SDS011;6863;48.402;9.994;2023-05-21T11:47:56;8.32;;;7.53;;
13584;SDS011;6863;48.402;9.994;2023-05-21T11:50:22;9.02;;;8.30;;
13584;SDS011;6863;48.402;9.994;2023-05-21T11:52:49;8.30;;;7.60;;
13584;SDS011;6863;48.402;9.994;2023-05-21T11:55:20;8.25;;;7.45;;
13584;SDS011;6863;48.402;9.994;2023-05-21T11:57:47;8.00;;;7.38;;
13584;SDS011;6863;48.402;9.994;2023-05-21T12:00:18;9.73;;;8.88;;
13584;SDS011;6863;48.402;9.994;2023-05-21T12:02:44;8.10;;;7.40;;
13584;SDS011;6863;48.402;9.994;2023-05-21T12:05:13;8.10;;;7.50;;
13584;SDS011;6863;48.402;9.994;2023-05-21T12:07:46;10.73;;;9.68;;
13584;SDS011;6863;48.402;9.994;2023-05-21T12:10:21;8.95;;;7.88;;
13584;SDS011;6863;48.402;9.994;2023-05-21T12:12:48;8.18;;;7.45;;
13584;SDS011;6863;48.402;9.994;2023-05-21T12:15:15;8.35;;;7.75;;
13584;SDS011;6863;48.402;9.994;2023-05-21T12:17:48;8.07;;;7.38;;
13584;SDS011;6863;48.402;9.994;2023-05-21T12:20:24;8.13;;;7.35;;
13584;SDS011;6863;48.402;9.994;2023-05-21T12:23:12;7.80;;;7.30;;
13584;SDS011;6863;48.402;9.994;2023-05-21T12:25:57;8.93;;;8.10;;
13584;SDS011;6863;48.402;9.994;2023-05-21T12:28:23;8.13;;;7.45;;
13584;SDS011;6863;48.402;9.994;2023-05-21T12:30:49;8.52;;;7.85;;
13584;SDS011;6863;48.402;9.994;2023-05-21T12:33:15;9.35;;;8.55;;
13584;SDS011;6863;48.402;9.994;2023-05-21T12:35:44;8.90;;;8.15;;
13584;SDS011;6863;48.402;9.994;2023-05-21T12:38:13;9.45;;;7.50;;
13584;SDS011;6863;48.402;9.994;2023-05-21T12:40:39;9.45;;;8.57;;
13584;SDS011;6863;48.402;9.994;2023-05-21T12:43:06;7.82;;;7.18;;
13584;SDS011;6863;48.402;9.994;2023-05-21T12:45:32;7.40;;;6.70;;
13584;SDS011;6863;48.402;9.994;2023-05-21T12:48:01;6.68;;;6.15;;
13584;SDS011;6863;48.402;9.994;2023-05-21T12:50:27;6.65;;;6.15;;
13584;SDS011;6863;48.402;9.994;2023-05-21T12:52:53;7.32;;;6.68;;
13584;SDS011;6863;48.402;9.994;2023-05-21T12:55:21;8.02;;;7.35;;
13584;SDS011;6863;48.402;9.994;2023-05-21T12:57:49;8.30;;;7.43;;
13584;SDS011;6863;48.402;9.994;2023-05-21T13:00:15;7.07;;;6.53;;
13584;SDS011;6863;48.402;9.994;2023-05-21T13:02:47;7.70;;;7.07;;
13584;SDS011;6863;48.402;9.994;2023-05-21T13:05:15;6.75;;;6.07;;
13584;SDS011;6863;48.402;9.994;2023-05-21T13:07:42;7.35;;;6.85;;
13584;SDS011;6863;48.402;9.994;2023-05-21T13:10:10;7.75;;;6.82;;
13584;SDS011;6863;48.402;9.994;2023-05-21T13:12:36;8.00;;;7.40;;
13584;SDS011;6863;48.402;9.994;2023-05-21T13:15:03;8.27;;;7.68;;
13584;SDS011;6863;48.402;9.994;2023-05-21T13:17:30;8.38;;;7.72;;
13584;SDS011;6863;48.402;9.994;2023-05-21T13:20:15;8.45;;;7.75;;
13584;SDS011;6863;48.402;9.994;2023-05-21T13:22:48;10.10;;;6.28;;
13584;SDS011;6863;48.402;9.994;2023-05-21T13:27:47;6.13;;;5.63;;
13584;SDS011;6863;48.402;9.994;2023-05-21T13:30:14;7.28;;;5.65;;
13584;SDS011;6863;48.402;9.994;2023-05-21T13:32:40;5.60;;;5.10;;
13584;SDS011;6863;48.402;9.994;2023-05-21T13:35:06;6.05;;;5.45;;
13584;SDS011;6863;48.402;9.994;2023-05-21T13:37:34;8.05;;;5.72;;
13584;SDS011;6863;48.402;9.994;2023-05-21T13:40:03;5.88;;;5.38;;
13584;SDS011;6863;48.402;9.994;2023-05-21T13:42:30;5.45;;;5.05;;
13584;SDS011;6863;48.402;9.994;2023-05-21T13:44:55;5.53;;;4.95;;
13584;SDS011;6863;48.402;9.994;2023-05-21T13:47:21;5.10;;;4.70;;
13584;SDS011;6863;48.402;9.994;2023-05-21T13:49:47;6.15;;;5.55;;
13584;SDS011;6863;48.402;9.994;2023-05-21T13:52:12;6.05;;;5.50;;
13584;SDS011;6863;48.402;9.994;2023-05-21T13:54:38;6.65;;;6.00;;
13584;SDS011;6863;48.402;9.994;2023-05-21T13:57:04;6.25;;;5.57;;
13584;SDS011;6863;48.402;9.994;2023-05-21T13:59:30;6.47;;;5.82;;
13584;SDS011;6863;48.402;9.994;2023-05-21T14:01:56;9.68;;;8.98;;
13584;SDS011;6863;48.402;9.994;2023-05-21T14:04:22;6.07;;;5.57;;
13584;SDS011;6863;48.402;9.994;2023-05-21T14:06:47;5.50;;;5.10;;
13584;SDS011;6863;48.402;9.994;2023-05-21T14:09:13;5.93;;;5.45;;
13584;SDS011;6863;48.402;9.994;2023-05-21T14:11:39;5.35;;;4.88;;
13584;SDS011;6863;48.402;9.994;2023-05-21T14:14:05;6.18;;;5.30;;
13584;SDS011;6863;48.402;9.994;2023-05-21T14:16:31;5.47;;;5.07;;
13584;SDS011;6863;48.402;9.994;2023-05-21T14:18:56;5.57;;;5.13;;
13584;SDS011;6863;48.402;9.994;2023-05-21T14:21:22;5.40;;;5.00;;
13584;SDS011;6863;48.402;9.994;2023-05-21T14:23:48;5.55;;;5.15;;
13584;SDS011;6863;48.402;9.994;2023-05-21T14:26:14;5.60;;;5.20;;
13584;SDS011;6863;48.402;9.994;2023-05-21T14:28:41;5.18;;;4.75;;
13584;SDS011;6863;48.402;9.994;2023-05-21T14:31:17;5.63;;;5.13;;
13584;SDS011;6863;48.402;9.994;2023-05-21T14:33:43;5.63;;;5.22;;
13584;SDS011;6863;48.402;9.994;2023-05-21T14:36:16;5.78;;;5.32;;
13584;SDS011;6863;48.402;9.994;2023-05-21T14:38:41;5.32;;;4.82;;
13584;SDS011;6863;48.402;9.994;2023-05-21T14:41:07;6.15;;;5.60;;
13584;SDS011;6863;48.402;9.994;2023-05-21T14:43:33;4.97;;;4.55;;
13584;SDS011;6863;48.402;9.994;2023-05-21T14:46:00;5.72;;;5.32;;
13584;SDS011;6863;48.402;9.994;2023-05-21T14:48:31;8.90;;;5.47;;
13584;SDS011;6863;48.402;9.994;2023-05-21T14:50:57;5.38;;;4.97;;
13584;SDS011;6863;48.402;9.994;2023-05-21T14:53:28;5.35;;;4.95;;
13584;SDS011;6863;48.402;9.994;2023-05-21T14:55:55;6.00;;;5.50;;
13584;SDS011;6863;48.402;9.994;2023-05-21T14:58:27;5.90;;;5.40;;
13584;SDS011;6863;48.402;9.994;2023-05-21T15:00:53;5.25;;;4.78;;
13584;SDS011;6863;48.402;9.994;2023-05-21T15:03:25;5.85;;;5.38;;
13584;SDS011;6863;48.402;9.994;2023-05-21T15:05:51;5.85;;;5.35;;
13584;SDS011;6863;48.402;9.994;2023-05-21T15:08:17;5.43;;;4.93;;
13584;SDS011;6863;48.402;9.994;2023-05-21T15:10:43;5.50;;;5.00;;
13584;SDS011;6863;48.402;9.994;2023-05-21T15:13:08;5.45;;;5.03;;
13584;SDS011;6863;48.402;9.994;2023-05-21T15:15:34;5.00;;;4.60;;
13584;SDS011;6863;48.402;9.994;2023-05-21T15:17:59;5.55;;;5.15;;
13584;SDS011;6863;48.402;9.994;2023-05-21T15:20:25;4.80;;;4.40;;
13584;SDS011;6863;48.402;9.994;2023-05-21T15:22:53;6.00;;;4.88;;